»·PEaware :: N2442P KVNY-KAVX

N2442P :: KVNY-KAVX

FLIGHT INFORMATION

Flight Status: Arrived
Operator: Privately registered:
United States
More flights under this callsign
Pilot: Ken Q. (14290)
Aircraft: MOONEY M-20K/M ENCORE BRAVO
(M20T)
More flights by this aircraft type
Origin: KVNY Van Nuys
United States
Destination: KAVX Catalina
United States
More flights between these airports :: More routes between these airports
Route: KVNY VTU SXC KAVX
File this flight plan on PilotEdge
Remarks: ROUTE TO AVOID KLAX BRAVO
Altitude:
(Current/Filed)
5,500ft
Speed:
(Current/Filed)
165kts
Departed: 04-Mar-17 12:10 PM
Arrived: 04-Mar-17 12:51 PM
Distance/Time
Traveled:
49nm/0:40
Distance/Time
To Go:
Arrived

Flight Plot

Page will automatically refresh every two minutes.

Flight plan parsing failed; only flown route is shown


Map Options




Map Legend


Flown Route
Filed Route
Departure Airport
Arrival Airport
Navaid (VOR, NDB)
Fix

Horizontal Profiles

Position Reports

Time Latitude Longitude Heading Altitude Ground
Speed
04-Mar-17 11:49 34.218767 -118.496014 177 805ft 0kts
04-Mar-17 11:50 34.218767 -118.496014 177 805ft 0kts
04-Mar-17 11:51 34.218767 -118.496014 177 805ft 0kts
04-Mar-17 11:52 34.218767 -118.496014 177 805ft 0kts
04-Mar-17 11:53 34.218767 -118.496014 177 805ft 0kts
04-Mar-17 11:54 34.218767 -118.496014 177 805ft 0kts
04-Mar-17 11:55 34.218767 -118.496014 177 805ft 0kts
04-Mar-17 11:56 34.218766 -118.496014 177 805ft 0kts
04-Mar-17 11:57 34.218766 -118.496014 177 805ft 0kts
04-Mar-17 11:58 34.218766 -118.496014 177 805ft 0kts
04-Mar-17 11:59 34.218766 -118.496014 177 805ft 0kts
04-Mar-17 12:00 34.218765 -118.496014 177 805ft 0kts
04-Mar-17 12:01 34.218765 -118.496014 177 805ft 0kts
04-Mar-17 12:02 34.218765 -118.496014 177 805ft 0kts
04-Mar-17 12:03 34.218765 -118.496014 177 805ft 0kts
04-Mar-17 12:04 34.218764 -118.496014 177 805ft 0kts
04-Mar-17 12:05 34.217852 -118.495667 131 805ft 2kts
04-Mar-17 12:06 34.217310 -118.493215 95 805ft 4kts
04-Mar-17 12:07 34.218677 -118.492462 26 805ft 3kts
04-Mar-17 12:08 34.218828 -118.492112 91 805ft 0kts
04-Mar-17 12:09 34.218828 -118.492103 91 805ft 0kts
04-Mar-17 12:10 34.218828 -118.492102 91 805ft 0kts
04-Mar-17 12:11 34.217170 -118.491087 175 805ft 45kts
04-Mar-17 12:12 34.192400 -118.489833 177 1290ft 111kts
04-Mar-17 12:13 34.167200 -118.513678 255 1934ft 146kts
04-Mar-17 12:14 34.163259 -118.563895 261 2539ft 147kts
04-Mar-17 12:15 34.158726 -118.611933 261 3126ft 141kts
04-Mar-17 12:16 34.154156 -118.658904 262 3726ft 140kts
04-Mar-17 12:17 34.152823 -118.705724 266 4327ft 139kts
04-Mar-17 12:18 34.153024 -118.748370 268 4873ft 136kts
04-Mar-17 12:19 34.153849 -118.794306 268 5456ft 140kts
04-Mar-17 12:20 34.152474 -118.840863 258 5508ft 162kts
04-Mar-17 12:21 34.144741 -118.896098 258 5504ft 168kts
04-Mar-17 12:22 34.136260 -118.951634 255 5505ft 168kts
04-Mar-17 12:23 34.126902 -119.002302 252 5507ft 168kts
04-Mar-17 12:24 34.111152 -119.055222 236 5511ft 167kts
04-Mar-17 12:25 34.070177 -119.049509 143 5516ft 169kts
04-Mar-17 12:26 34.033848 -119.013279 141 5515ft 168kts
04-Mar-17 12:27 33.998140 -118.977339 141 5516ft 166kts
04-Mar-17 12:28 33.962597 -118.941559 141 5515ft 166kts
04-Mar-17 12:29 33.927075 -118.905835 141 5516ft 166kts
04-Mar-17 12:30 33.891456 -118.870037 141 5517ft 166kts
04-Mar-17 12:31 33.855703 -118.834759 143 5517ft 166kts
04-Mar-17 12:32 33.819228 -118.800704 143 5516ft 166kts
04-Mar-17 12:33 33.782789 -118.766485 143 5498ft 166kts
04-Mar-17 12:34 33.746216 -118.732764 155 5496ft 163kts
04-Mar-17 12:35 33.701583 -118.724065 179 5495ft 162kts
04-Mar-17 12:36 33.659935 -118.725493 168 5496ft 163kts
04-Mar-17 12:37 33.622399 -118.694451 143 5498ft 165kts
04-Mar-17 12:38 33.588497 -118.662547 143 5186ft 152kts
04-Mar-17 12:39 33.565492 -118.622836 110 4700ft 152kts
04-Mar-17 12:40 33.533757 -118.591276 147 4206ft 150kts
04-Mar-17 12:41 33.502309 -118.560558 105 3709ft 149kts
04-Mar-17 12:42 33.496523 -118.511534 97 3218ft 149kts
04-Mar-17 12:43 33.491401 -118.465822 97 2759ft 150kts
04-Mar-17 12:44 33.486780 -118.419510 74 2581ft 123kts
04-Mar-17 12:45 33.503103 -118.386562 57 2595ft 110kts
04-Mar-17 12:46 33.498011 -118.357166 128 2601ft 104kts
04-Mar-17 12:47 33.476734 -118.334405 146 2597ft 102kts
04-Mar-17 12:48 33.451429 -118.332025 219 2621ft 107kts
04-Mar-17 12:49 33.434019 -118.359557 254 2597ft 105kts
04-Mar-17 12:50 33.422086 -118.387808 232 2444ft 90kts
04-Mar-17 12:51 33.407267 -118.412145 233 1696ft 88kts
04-Mar-17 12:52 33.402420 -118.419966 162 1605ft 0kts
04-Mar-17 12:53 33.402930 -118.418558 55 1605ft 16kts
04-Mar-17 12:54 33.403534 -118.415739 50 1605ft 4kts
04-Mar-17 12:55 33.403677 -118.415792 148 1605ft 0kts
04-Mar-17 12:56 33.403677 -118.415792 148 1605ft 0kts
04-Mar-17 12:57 33.403677 -118.415792 148 1605ft 0kts
04-Mar-17 12:58 33.403574 -118.415965 277 1605ft 0kts
04-Mar-17 12:59 33.403574 -118.415967 277 1605ft 0kts
04-Mar-17 13:00 33.402913 -118.415289 117 1605ft 1kts
04-Mar-17 13:01 33.401668 -118.414330 154 1603ft 0kts
04-Mar-17 13:02 33.401641 -118.414321 149 1603ft 0kts
04-Mar-17 13:03 33.401617 -118.414309 138 1604ft 0kts
04-Mar-17 13:04 33.401608 -118.414212 65 1604ft 1kts
04-Mar-17 13:05 33.403356 -118.415474 347 1605ft 12kts
04-Mar-17 13:06 33.403728 -118.415823 143 1605ft 0kts

Navigation Log

Ident Type
Flight plan parsing failed, navigation log unavailable